sensor_id;sensor_type;location;lat;lon;timestamp;pressure;altitude;pressure_sealevel;temperature;humidity
62976;BME280;49071;0.000;0.000;2022-08-05T05:08:31;100506.13;;;24.44;46.21
62976;BME280;49071;0.000;0.000;2022-08-05T05:11:31;100504.59;;;24.26;46.08
62976;BME280;49071;0.000;0.000;2022-08-05T05:14:32;100511.50;;;24.25;46.40
62976;BME280;49071;0.000;0.000;2022-08-05T05:17:35;100504.84;;;24.28;46.19
62976;BME280;49071;0.000;0.000;2022-08-05T05:20:36;100509.22;;;24.35;46.32
62976;BME280;49071;0.000;0.000;2022-08-05T05:23:36;100518.47;;;24.36;46.48
62976;BME280;49071;0.000;0.000;2022-08-05T05:26:36;100516.66;;;24.33;45.92
62976;BME280;49071;0.000;0.000;2022-08-05T05:29:37;100522.88;;;24.48;46.18
62976;BME280;49071;0.000;0.000;2022-08-05T05:32:37;100506.69;;;24.48;45.75
62976;BME280;49071;0.000;0.000;2022-08-05T05:35:37;100505.91;;;24.59;45.78
62976;BME280;49071;0.000;0.000;2022-08-05T05:38:37;100514.41;;;24.65;45.39
62976;BME280;49071;0.000;0.000;2022-08-05T05:41:38;100505.16;;;24.70;45.16
62976;BME280;49071;0.000;0.000;2022-08-05T05:44:38;100504.13;;;24.73;45.24
62976;BME280;49071;0.000;0.000;2022-08-05T05:47:38;100515.19;;;24.77;45.22
62976;BME280;49071;0.000;0.000;2022-08-05T05:50:39;100510.28;;;24.83;45.09
62976;BME280;49071;0.000;0.000;2022-08-05T05:53:40;100513.38;;;24.85;45.10
62976;BME280;49071;0.000;0.000;2022-08-05T05:56:40;100512.34;;;24.82;44.99
62976;BME280;49071;0.000;0.000;2022-08-05T05:59:40;100516.19;;;24.85;44.96
62976;BME280;49071;0.000;0.000;2022-08-05T06:02:41;100508.72;;;24.87;44.95
62976;BME280;49071;0.000;0.000;2022-08-05T06:05:41;100510.53;;;24.90;44.88
62976;BME280;49071;0.000;0.000;2022-08-05T06:08:41;100507.44;;;24.94;45.31
62976;BME280;49071;0.000;0.000;2022-08-05T06:11:43;100509.50;;;24.99;44.83
62976;BME280;49071;0.000;0.000;2022-08-05T06:14:44;100518.47;;;24.98;45.17
62976;BME280;49071;0.000;0.000;2022-08-05T06:17:45;100510.25;;;25.05;45.05
62976;BME280;49071;0.000;0.000;2022-08-05T06:20:45;100503.03;;;25.10;44.91
62976;BME280;49071;0.000;0.000;2022-08-05T06:23:45;100503.84;;;25.10;45.32
62976;BME280;49071;0.000;0.000;2022-08-05T06:26:45;100513.06;;;25.11;45.08
62976;BME280;49071;0.000;0.000;2022-08-05T06:29:45;100505.63;;;25.13;45.38
62976;BME280;49071;0.000;0.000;2022-08-05T06:32:46;100502.78;;;25.13;45.17
62976;BME280;49071;0.000;0.000;2022-08-05T06:35:46;100497.66;;;25.12;45.35
62976;BME280;49071;0.000;0.000;2022-08-05T06:38:46;100496.38;;;25.13;45.00
62976;BME280;49071;0.000;0.000;2022-08-05T06:41:48;100499.97;;;25.13;44.85
62976;BME280;49071;0.000;0.000;2022-08-05T06:44:48;100503.31;;;25.18;45.11
62976;BME280;49071;0.000;0.000;2022-08-05T06:47:48;100498.94;;;25.22;45.40
62976;BME280;49071;0.000;0.000;2022-08-05T06:50:49;100503.03;;;25.27;45.32
62976;BME280;49071;0.000;0.000;2022-08-05T06:53:49;100501.25;;;25.24;45.22
62976;BME280;49071;0.000;0.000;2022-08-05T06:56:49;100504.59;;;25.28;45.32
62976;BME280;49071;0.000;0.000;2022-08-05T06:59:49;100508.94;;;25.29;45.37
62976;BME280;49071;0.000;0.000;2022-08-05T07:02:50;100501.00;;;25.27;45.51
62976;BME280;49071;0.000;0.000;2022-08-05T07:05:50;100496.09;;;25.28;45.45
62976;BME280;49071;0.000;0.000;2022-08-05T07:08:50;100511.78;;;25.29;45.17
62976;BME280;49071;0.000;0.000;2022-08-05T07:11:50;100514.59;;;25.29;45.26
62976;BME280;49071;0.000;0.000;2022-08-05T07:14:51;100515.09;;;25.33;45.47
62976;BME280;49071;0.000;0.000;2022-08-05T07:18:09;100524.09;;;25.37;45.57
62976;BME280;49071;0.000;0.000;2022-08-05T07:21:10;100529.97;;;25.39;45.79
62976;BME280;49071;0.000;0.000;2022-08-05T07:24:10;100537.94;;;25.41;45.76
62976;BME280;49071;0.000;0.000;2022-08-05T07:27:11;100552.34;;;25.43;45.42
62976;BME280;49071;0.000;0.000;2022-08-05T07:30:11;100560.03;;;25.48;46.02
62976;BME280;49071;0.000;0.000;2022-08-05T07:33:11;100556.44;;;25.47;45.87
62976;BME280;49071;0.000;0.000;2022-08-05T07:36:12;100558.22;;;25.56;46.17
62976;BME280;49071;0.000;0.000;2022-08-05T07:39:13;100563.09;;;25.55;46.29
62976;BME280;49071;0.000;0.000;2022-08-05T07:42:13;100565.94;;;25.55;46.20
62976;BME280;49071;0.000;0.000;2022-08-05T07:45:14;100564.66;;;25.57;46.33
62976;BME280;49071;0.000;0.000;2022-08-05T07:48:15;100567.47;;;25.57;46.32
62976;BME280;49071;0.000;0.000;2022-08-05T07:51:15;100569.78;;;25.58;46.65
62976;BME280;49071;0.000;0.000;2022-08-05T07:54:15;100558.47;;;25.64;46.28
62976;BME280;49071;0.000;0.000;2022-08-05T07:57:15;100560.00;;;25.65;46.47
62976;BME280;49071;0.000;0.000;2022-08-05T08:00:16;100560.00;;;25.65;46.90
62976;BME280;49071;0.000;0.000;2022-08-05T08:03:16;100557.66;;;25.63;46.84
62976;BME280;49071;0.000;0.000;2022-08-05T08:06:17;100563.88;;;25.62;46.60
62976;BME280;49071;0.000;0.000;2022-08-05T08:09:18;100566.44;;;25.60;46.46
62976;BME280;49071;0.000;0.000;2022-08-05T08:12:19;100561.53;;;25.60;46.61
62976;BME280;49071;0.000;0.000;2022-08-05T08:15:19;100556.66;;;25.61;46.97
62976;BME280;49071;0.000;0.000;2022-08-05T08:18:19;100569.78;;;25.64;46.93
62976;BME280;49071;0.000;0.000;2022-08-05T08:21:19;100569.78;;;25.64;46.34
62976;BME280;49071;0.000;0.000;2022-08-05T08:24:20;100572.59;;;25.64;47.07
62976;BME280;49071;0.000;0.000;2022-08-05T08:27:20;100582.34;;;25.63;46.93
62976;BME280;49071;0.000;0.000;2022-08-05T08:30:21;100579.78;;;25.65;46.91
62976;BME280;49071;0.000;0.000;2022-08-05T08:33:21;100585.44;;;25.65;46.94
62976;BME280;49071;0.000;0.000;2022-08-05T08:36:21;100592.63;;;25.66;46.88
62976;BME280;49071;0.000;0.000;2022-08-05T08:39:22;100597.78;;;25.67;46.87
62976;BME280;49071;0.000;0.000;2022-08-05T08:42:23;100595.72;;;25.68;47.01
62976;BME280;49071;0.000;0.000;2022-08-05T08:45:24;100594.94;;;25.67;47.02
62976;BME280;49071;0.000;0.000;2022-08-05T08:48:25;100599.31;;;25.68;47.05
62976;BME280;49071;0.000;0.000;2022-08-05T08:51:26;100602.94;;;25.69;46.92
62976;BME280;49071;0.000;0.000;2022-08-05T08:54:30;100596.47;;;25.68;46.99
62976;BME280;49071;0.000;0.000;2022-08-05T08:57:31;100596.47;;;25.68;46.86
62976;BME280;49071;0.000;0.000;2022-08-05T09:00:33;100600.34;;;25.71;47.07
62976;BME280;49071;0.000;0.000;2022-08-05T09:03:33;100600.56;;;25.73;47.24
62976;BME280;49071;0.000;0.000;2022-08-05T09:06:34;100603.19;;;25.71;46.86
62976;BME280;49071;0.000;0.000;2022-08-05T09:09:34;100606.00;;;25.71;46.86
62976;BME280;49071;0.000;0.000;2022-08-05T09:12:36;100602.94;;;25.69;46.93
62976;BME280;49071;0.000;0.000;2022-08-05T09:15:36;100600.09;;;25.69;47.14
62976;BME280;49071;0.000;0.000;2022-08-05T09:18:37;100595.19;;;25.69;46.92
62976;BME280;49071;0.000;0.000;2022-08-05T09:21:37;100593.13;;;25.70;47.02
62976;BME280;49071;0.000;0.000;2022-08-05T09:24:37;100606.50;;;25.75;46.91
62976;BME280;49071;0.000;0.000;2022-08-05T09:27:38;100601.38;;;25.73;46.60
62976;BME280;49071;0.000;0.000;2022-08-05T09:30:41;100605.47;;;25.72;46.83
62976;BME280;49071;0.000;0.000;2022-08-05T09:33:48;100610.09;;;25.75;46.89
62976;BME280;49071;0.000;0.000;2022-08-05T09:36:49;100611.91;;;25.73;46.80
62976;BME280;49071;0.000;0.000;2022-08-05T09:39:50;100609.59;;;25.71;46.99
62976;BME280;49071;0.000;0.000;2022-08-05T09:42:50;100621.69;;;25.72;46.79
62976;BME280;49071;0.000;0.000;2022-08-05T09:45:50;100621.19;;;25.73;46.73
62976;BME280;49071;0.000;0.000;2022-08-05T09:48:51;100621.94;;;25.74;46.74
62976;BME280;49071;0.000;0.000;2022-08-05T09:51:53;100611.63;;;25.76;46.64
62976;BME280;49071;0.000;0.000;2022-08-05T09:54:54;100621.41;;;25.81;46.70
62976;BME280;49071;0.000;0.000;2022-08-05T09:57:54;100628.06;;;25.78;46.54
62976;BME280;49071;0.000;0.000;2022-08-05T10:00:56;100620.13;;;25.76;46.83
62976;BME280;49071;0.000;0.000;2022-08-05T10:03:58;100615.22;;;25.77;46.54
62976;BME280;49071;0.000;0.000;2022-08-05T10:06:59;100613.94;;;25.78;46.87
62976;BME280;49071;0.000;0.000;2022-08-05T10:09:59;100617.81;;;25.81;46.66
62976;BME280;49071;0.000;0.000;2022-08-05T10:13:00;100603.66;;;25.86;46.69
62976;BME280;49071;0.000;0.000;2022-08-05T10:16:05;100611.88;;;25.84;46.65
62976;BME280;49071;0.000;0.000;2022-08-05T10:19:05;100614.69;;;25.84;46.75
62976;BME280;49071;0.000;0.000;2022-08-05T10:22:06;100619.06;;;25.85;46.60
62976;BME280;49071;0.000;0.000;2022-08-05T10:25:07;100618.81;;;25.83;46.95
62976;BME280;49071;0.000;0.000;2022-08-05T10:28:07;100614.97;;;25.81;46.92
62976;BME280;49071;0.000;0.000;2022-08-05T10:31:10;100616.50;;;25.82;46.86
62976;BME280;49071;0.000;0.000;2022-08-05T10:34:10;100614.44;;;25.82;47.24
62976;BME280;49071;0.000;0.000;2022-08-05T10:37:11;100619.06;;;25.85;47.43
62976;BME280;49071;0.000;0.000;2022-08-05T10:40:20;100613.16;;;25.83;47.11
62976;BME280;49071;0.000;0.000;2022-08-05T10:46:21;100616.00;;;25.83;47.28
62976;BME280;49071;0.000;0.000;2022-08-05T10:49:22;100612.16;;;25.81;47.18
62976;BME280;49071;0.000;0.000;2022-08-05T10:56:00;100605.19;;;25.82;47.30
62976;BME280;49071;0.000;0.000;2022-08-05T10:59:02;100611.09;;;25.84;47.31
62976;BME280;49071;0.000;0.000;2022-08-05T11:02:10;100607.25;;;25.87;47.44
62976;BME280;49071;0.000;0.000;2022-08-05T11:05:11;100603.66;;;25.86;47.27
62976;BME280;49071;0.000;0.000;2022-08-05T11:08:11;100599.78;;;25.84;47.47
62976;BME280;49071;0.000;0.000;2022-08-05T11:11:30;100607.50;;;25.83;47.18
62976;BME280;49071;0.000;0.000;2022-08-05T11:14:32;100620.34;;;25.84;47.41
62976;BME280;49071;0.000;0.000;2022-08-05T11:17:36;100618.81;;;25.83;47.36
62976;BME280;49071;0.000;0.000;2022-08-05T11:20:41;100620.34;;;25.84;47.53
62976;BME280;49071;0.000;0.000;2022-08-05T11:23:50;100632.97;;;25.83;47.18
62976;BME280;49071;0.000;0.000;2022-08-05T11:27:08;100623.69;;;25.83;47.29
62976;BME280;49071;0.000;0.000;2022-08-05T11:30:11;100620.63;;;25.86;47.21
62976;BME280;49071;0.000;0.000;2022-08-05T11:33:23;100626.78;;;25.85;47.20
62976;BME280;49071;0.000;0.000;2022-08-05T11:39:46;100616.22;;;25.85;47.46
62976;BME280;49071;0.000;0.000;2022-08-05T11:42:46;100604.13;;;25.85;47.64
62976;BME280;49071;0.000;0.000;2022-08-05T11:45:47;100595.19;;;25.86;47.53
62976;BME280;49071;0.000;0.000;2022-08-05T11:48:47;100583.84;;;25.86;47.29
62976;BME280;49071;0.000;0.000;2022-08-05T11:51:49;100603.66;;;25.86;47.30
62976;BME280;49071;0.000;0.000;2022-08-05T11:54:49;100597.50;;;25.88;47.66
62976;BME280;49071;0.000;0.000;2022-08-05T11:57:50;100601.59;;;25.87;47.63
62976;BME280;49071;0.000;0.000;2022-08-05T12:00:59;100599.53;;;25.87;47.55
62976;BME280;49071;0.000;0.000;2022-08-05T12:03:59;100602.34;;;25.87;47.50
62976;BME280;49071;0.000;0.000;2022-08-05T12:06:59;100603.66;;;25.86;47.75
62976;BME280;49071;0.000;0.000;2022-08-05T12:10:00;100609.84;;;25.90;47.64
62976;BME280;49071;0.000;0.000;2022-08-05T12:13:02;100621.59;;;26.06;47.62
62976;BME280;49071;0.000;0.000;2022-08-05T12:16:05;100619.78;;;26.08;47.11
62976;BME280;49071;0.000;0.000;2022-08-05T12:19:06;100632.88;;;26.17;47.26
62976;BME280;49071;0.000;0.000;2022-08-05T12:22:07;100639.38;;;26.01;47.87
62976;BME280;49071;0.000;0.000;2022-08-05T12:25:07;100649.19;;;25.66;47.85
62976;BME280;49071;0.000;0.000;2022-08-05T12:28:08;100653.09;;;25.46;47.18
62976;BME280;49071;0.000;0.000;2022-08-05T12:31:08;100659.03;;;25.31;47.01
62976;BME280;49071;0.000;0.000;2022-08-05T12:34:09;100662.13;;;25.27;46.35
62976;BME280;49071;0.000;0.000;2022-08-05T12:37:10;100631.53;;;25.26;45.63
62976;BME280;49071;0.000;0.000;2022-08-05T12:40:10;100625.34;;;25.22;45.64
62976;BME280;49071;0.000;0.000;2022-08-05T12:43:10;100658.25;;;25.19;45.50
62976;BME280;49071;0.000;0.000;2022-08-05T12:46:18;100671.84;;;25.09;45.40
62976;BME280;49071;0.000;0.000;2022-08-05T12:49:19;100664.69;;;25.25;47.13
62976;BME280;49071;0.000;0.000;2022-08-05T12:52:19;100655.41;;;25.47;46.61
62976;BME280;49071;0.000;0.000;2022-08-05T12:55:21;100668.22;;;25.65;46.28
62976;BME280;49071;0.000;0.000;2022-08-05T12:58:22;100692.13;;;25.75;46.09
62976;BME280;49071;0.000;0.000;2022-08-05T13:01:23;100684.16;;;25.80;46.06
62976;BME280;49071;0.000;0.000;2022-08-05T13:04:33;100685.22;;;25.71;46.01
62976;BME280;49071;0.000;0.000;2022-08-05T13:07:33;100680.09;;;25.41;46.09
62976;BME280;49071;0.000;0.000;2022-08-05T13:10:34;100680.63;;;25.28;45.72
62976;BME280;49071;0.000;0.000;2022-08-05T13:13:41;100679.03;;;25.16;45.30
62976;BME280;49071;0.000;0.000;2022-08-05T13:16:55;100686.00;;;25.21;45.39
62976;BME280;49071;0.000;0.000;2022-08-05T13:23:08;100690.13;;;25.25;44.83
62976;BME280;49071;0.000;0.000;2022-08-05T13:26:08;100683.19;;;25.21;44.31
62976;BME280;49071;0.000;0.000;2022-08-05T13:29:08;100678.28;;;25.21;44.30
62976;BME280;49071;0.000;0.000;2022-08-05T13:32:09;100692.94;;;25.20;44.31
62976;BME280;49071;0.000;0.000;2022-08-05T13:35:09;100699.13;;;25.18;44.53
62976;BME280;49071;0.000;0.000;2022-08-05T13:38:09;100701.88;;;25.12;44.91
62976;BME280;49071;0.000;0.000;2022-08-05T13:41:09;100700.16;;;25.21;46.65
62976;BME280;49071;0.000;0.000;2022-08-05T13:44:10;100704.78;;;25.41;46.38
62976;BME280;49071;0.000;0.000;2022-08-05T13:47:10;100705.03;;;25.60;46.23
62976;BME280;49071;0.000;0.000;2022-08-05T13:50:11;100710.69;;;25.71;45.93
62976;BME280;49071;0.000;0.000;2022-08-05T13:53:11;100703.19;;;25.68;45.85
62976;BME280;49071;0.000;0.000;2022-08-05T13:56:11;100707.84;;;25.43;45.74
62976;BME280;49071;0.000;0.000;2022-08-05T13:59:12;100719.69;;;25.30;45.34
62976;BME280;49071;0.000;0.000;2022-08-05T14:02:12;100714.53;;;25.23;45.59
62976;BME280;49071;0.000;0.000;2022-08-05T14:05:13;100715.28;;;25.18;45.37
62976;BME280;49071;0.000;0.000;2022-08-05T14:08:14;100711.69;;;25.17;45.40
62976;BME280;49071;0.000;0.000;2022-08-05T14:11:15;100703.75;;;25.21;45.20
62976;BME280;49071;0.000;0.000;2022-08-05T14:14:15;100699.63;;;25.28;44.84
62976;BME280;49071;0.000;0.000;2022-08-05T14:17:15;100701.44;;;25.31;44.55
62976;BME280;49071;0.000;0.000;2022-08-05T14:20:16;100696.28;;;25.29;44.97
62976;BME280;49071;0.000;0.000;2022-08-05T14:23:16;100699.38;;;25.31;44.63
62976;BME280;49071;0.000;0.000;2022-08-05T14:26:16;100699.13;;;25.35;45.62
62976;BME280;49071;0.000;0.000;2022-08-05T14:29:17;100700.66;;;25.47;45.49
62976;BME280;49071;0.000;0.000;2022-08-05T14:32:17;100697.06;;;25.64;45.42
62976;BME280;49071;0.000;0.000;2022-08-05T14:35:17;100705.25;;;25.73;45.58
62976;BME280;49071;0.000;0.000;2022-08-05T14:38:18;100710.38;;;25.80;45.36
62976;BME280;49071;0.000;0.000;2022-08-05T14:41:18;100704.22;;;25.70;45.14
62976;BME280;49071;0.000;0.000;2022-08-05T14:44:18;100703.47;;;25.53;45.00
62976;BME280;49071;0.000;0.000;2022-08-05T14:47:19;100706.56;;;25.32;44.60
62976;BME280;49071;0.000;0.000;2022-08-05T14:50:19;100701.69;;;25.33;44.54
62976;BME280;49071;0.000;0.000;2022-08-05T14:53:19;100704.78;;;25.35;44.92
62976;BME280;49071;0.000;0.000;2022-08-05T14:56:19;100712.22;;;25.32;44.71
62976;BME280;49071;0.000;0.000;2022-08-05T14:59:20;100711.97;;;25.36;44.51
62976;BME280;49071;0.000;0.000;2022-08-05T15:02:20;100716.59;;;25.39;44.21
62976;BME280;49071;0.000;0.000;2022-08-05T15:05:21;100714.28;;;25.54;46.03
62976;BME280;49071;0.000;0.000;2022-08-05T15:08:21;100714.00;;;25.75;46.53
62976;BME280;49071;0.000;0.000;2022-08-05T15:11:22;100705.78;;;25.88;45.34
62976;BME280;49071;0.000;0.000;2022-08-05T15:14:22;100708.56;;;25.83;45.72
62976;BME280;49071;0.000;0.000;2022-08-05T15:17:22;100712.19;;;25.72;45.81
62976;BME280;49071;0.000;0.000;2022-08-05T15:20:23;100718.91;;;25.69;45.70
62976;BME280;49071;0.000;0.000;2022-08-05T15:23:24;100709.38;;;25.66;45.60
62976;BME280;49071;0.000;0.000;2022-08-05T15:26:24;100708.09;;;25.79;47.13
62976;BME280;49071;0.000;0.000;2022-08-05T15:29:24;100706.28;;;25.81;46.75
62976;BME280;49071;0.000;0.000;2022-08-05T15:32:25;100713.72;;;25.90;47.21
62976;BME280;49071;0.000;0.000;2022-08-05T15:35:27;100717.84;;;25.94;47.67
62976;BME280;49071;0.000;0.000;2022-08-05T15:38:27;100711.91;;;26.04;48.44
62976;BME280;49071;0.000;0.000;2022-08-05T15:41:27;100708.81;;;26.07;48.01
62976;BME280;49071;0.000;0.000;2022-08-05T15:44:28;100713.94;;;26.09;47.64
62976;BME280;49071;0.000;0.000;2022-08-05T15:47:28;100714.72;;;26.09;48.09
62976;BME280;49071;0.000;0.000;2022-08-05T15:50:28;100710.88;;;26.12;49.40
62976;BME280;49071;0.000;0.000;2022-08-05T15:53:28;100701.28;;;26.21;48.55
62976;BME280;49071;0.000;0.000;2022-08-05T15:56:29;100713.16;;;26.20;48.22
62976;BME280;49071;0.000;0.000;2022-08-05T15:59:29;100704.66;;;26.14;48.12
62976;BME280;49071;0.000;0.000;2022-08-05T16:02:29;100696.69;;;26.18;48.26
62976;BME280;49071;0.000;0.000;2022-08-05T16:05:29;100696.19;;;26.08;47.29
62976;BME280;49071;0.000;0.000;2022-08-05T16:08:30;100697.72;;;26.09;47.42
62976;BME280;49071;0.000;0.000;2022-08-05T16:11:30;100703.66;;;26.06;47.68
62976;BME280;49071;0.000;0.000;2022-08-05T16:14:30;100703.16;;;26.07;47.46
62976;BME280;49071;0.000;0.000;2022-08-05T16:17:30;100702.38;;;26.07;47.33
62976;BME280;49071;0.000;0.000;2022-08-05T16:20:31;100716.28;;;25.99;47.35
62976;BME280;49071;0.000;0.000;2022-08-05T16:23:31;100719.66;;;25.98;47.70
62976;BME280;49071;0.000;0.000;2022-08-05T16:26:32;100727.84;;;26.07;48.42
62976;BME280;49071;0.000;0.000;2022-08-05T16:29:32;100722.06;;;26.40;50.01
62976;BME280;49071;0.000;0.000;2022-08-05T16:32:32;100716.91;;;26.56;49.91
62976;BME280;49071;0.000;0.000;2022-08-05T16:35:32;100719.34;;;26.76;50.33
62976;BME280;49071;0.000;0.000;2022-08-05T16:38:33;100718.25;;;26.91;50.21
62976;BME280;49071;0.000;0.000;2022-08-05T16:41:33;100725.38;;;27.03;50.25
62976;BME280;49071;0.000;0.000;2022-08-05T16:44:34;100718.56;;;26.81;50.38
62976;BME280;49071;0.000;0.000;2022-08-05T16:47:35;100737.50;;;26.51;50.36
62976;BME280;49071;0.000;0.000;2022-08-05T16:50:35;100742.44;;;26.39;50.12
62976;BME280;49071;0.000;0.000;2022-08-05T16:53:39;100733.69;;;26.37;49.69
62976;BME280;49071;0.000;0.000;2022-08-05T16:56:39;100736.53;;;26.31;49.16
62976;BME280;49071;0.000;0.000;2022-08-05T16:59:40;100738.31;;;26.34;48.71
62976;BME280;49071;0.000;0.000;2022-08-05T17:02:40;100725.22;;;26.31;48.72
62976;BME280;49071;0.000;0.000;2022-08-05T17:05:41;100740.41;;;26.34;49.05
62976;BME280;49071;0.000;0.000;2022-08-05T17:08:41;100740.13;;;26.26;48.34
62976;BME280;49071;0.000;0.000;2022-08-05T17:11:43;100753.03;;;26.27;48.66
62976;BME280;49071;0.000;0.000;2022-08-05T17:14:43;100760.97;;;26.34;48.88
62976;BME280;49071;0.000;0.000;2022-08-05T17:17:43;100752.97;;;26.38;48.76
62976;BME280;49071;0.000;0.000;2022-08-05T17:20:43;100767.13;;;26.38;49.10
62976;BME280;49071;0.000;0.000;2022-08-05T17:23:44;100775.88;;;26.40;48.72
62976;BME280;49071;0.000;0.000;2022-08-05T17:26:44;100776.66;;;26.35;48.86
62976;BME280;49071;0.000;0.000;2022-08-05T17:29:44;100776.91;;;26.43;49.54
62976;BME280;49071;0.000;0.000;2022-08-05T17:32:44;100781.03;;;26.42;48.81
62976;BME280;49071;0.000;0.000;2022-08-05T17:35:45;100777.44;;;26.42;48.54
62976;BME280;49071;0.000;0.000;2022-08-05T17:38:45;100772.00;;;26.49;48.45
62976;BME280;49071;0.000;0.000;2022-08-05T17:41:45;100770.97;;;26.47;48.13
62976;BME280;49071;0.000;0.000;2022-08-05T17:44:46;100777.91;;;26.46;48.16
62976;BME280;49071;0.000;0.000;2022-08-05T17:47:46;100790.03;;;26.46;48.18
62976;BME280;49071;0.000;0.000;2022-08-05T17:50:47;100805.72;;;26.47;47.58
62976;BME280;49071;0.000;0.000;2022-08-05T17:53:48;100824.78;;;26.47;47.74
62976;BME280;49071;0.000;0.000;2022-08-05T17:56:48;100825.03;;;26.49;48.79
62976;BME280;49071;0.000;0.000;2022-08-05T17:59:49;100835.09;;;26.44;47.09
62976;BME280;49071;0.000;0.000;2022-08-05T18:02:49;100840.53;;;26.36;47.37
62976;BME280;49071;0.000;0.000;2022-08-05T18:05:49;100843.84;;;26.40;47.28
62976;BME280;49071;0.000;0.000;2022-08-05T18:08:50;100840.75;;;26.38;47.25
62976;BME280;49071;0.000;0.000;2022-08-05T18:11:50;100845.66;;;26.38;47.00
62976;BME280;49071;0.000;0.000;2022-08-05T18:14:50;100856.22;;;26.32;47.05
62976;BME280;49071;0.000;0.000;2022-08-05T18:17:50;100872.16;;;26.40;47.43
62976;BME280;49071;0.000;0.000;2022-08-05T18:20:51;100883.22;;;26.50;46.82
62976;BME280;49071;0.000;0.000;2022-08-05T18:23:51;100880.66;;;26.63;48.30
62976;BME280;49071;0.000;0.000;2022-08-05T18:26:51;100891.16;;;26.85;48.82
62976;BME280;49071;0.000;0.000;2022-08-05T18:29:52;100897.31;;;26.95;48.99
62976;BME280;49071;0.000;0.000;2022-08-05T18:32:52;100897.56;;;26.97;49.05
62976;BME280;49071;0.000;0.000;2022-08-05T18:35:52;100901.41;;;26.99;49.66
62976;BME280;49071;0.000;0.000;2022-08-05T18:38:52;100913.06;;;26.85;49.86
62976;BME280;49071;0.000;0.000;2022-08-05T18:41:53;100911.25;;;26.81;50.08
62976;BME280;49071;0.000;0.000;2022-08-05T18:44:53;100927.50;;;26.75;49.90
62976;BME280;49071;0.000;0.000;2022-08-05T18:47:53;100930.84;;;26.74;49.91
62976;BME280;49071;0.000;0.000;2022-08-05T18:50:54;100937.03;;;26.72;50.44
62976;BME280;49071;0.000;0.000;2022-08-05T18:54:13;100953.78;;;26.76;50.82
62976;BME280;49071;0.000;0.000;2022-08-05T18:57:13;100960.44;;;26.90;50.87
62976;BME280;49071;0.000;0.000;2022-08-05T19:00:16;100965.31;;;26.95;51.27
62976;BME280;49071;0.000;0.000;2022-08-05T19:03:16;100982.09;;;26.76;51.67
62976;BME280;49071;0.000;0.000;2022-08-05T19:06:17;100990.63;;;26.53;52.56
62976;BME280;49071;0.000;0.000;2022-08-05T19:09:17;100997.56;;;26.47;52.32
62976;BME280;49071;0.000;0.000;2022-08-05T19:12:17;101005.78;;;26.33;52.13
62976;BME280;49071;0.000;0.000;2022-08-05T19:15:17;101011.72;;;26.30;52.65
62976;BME280;49071;0.000;0.000;2022-08-05T19:18:18;101014.28;;;26.22;52.32
62976;BME280;49071;0.000;0.000;2022-08-05T19:21:19;101030.75;;;26.29;51.96
62976;BME280;49071;0.000;0.000;2022-08-05T19:24:19;101032.81;;;26.34;51.46
62976;BME280;49071;0.000;0.000;2022-08-05T19:27:19;101043.81;;;25.99;51.52
62976;BME280;49071;0.000;0.000;2022-08-05T19:30:19;101032.81;;;26.17;51.04
62976;BME280;49071;0.000;0.000;2022-08-05T19:33:20;101037.19;;;26.30;50.72
62976;BME280;49071;0.000;0.000;2022-08-05T19:36:20;101047.41;;;25.99;50.79
62976;BME280;49071;0.000;0.000;2022-08-05T19:39:21;101043.88;;;25.55;51.11
62976;BME280;49071;0.000;0.000;2022-08-05T19:42:21;101054.22;;;25.64;50.35
62976;BME280;49071;0.000;0.000;2022-08-05T19:45:21;101047.13;;;25.86;50.36
62976;BME280;49071;0.000;0.000;2022-08-05T19:48:21;101065.16;;;26.00;49.48
62976;BME280;49071;0.000;0.000;2022-08-05T19:51:22;101064.78;;;25.75;49.34
62976;BME280;49071;0.000;0.000;2022-08-05T19:54:22;101074.81;;;25.70;49.28
62976;BME280;49071;0.000;0.000;2022-08-05T19:57:23;101084.22;;;25.45;48.75
62976;BME280;49071;0.000;0.000;2022-08-05T20:00:23;101088.28;;;25.38;48.83
62976;BME280;49071;0.000;0.000;2022-08-05T20:03:24;101091.22;;;25.18;48.88
62976;BME280;49071;0.000;0.000;2022-08-05T20:06:25;101103.66;;;25.00;48.82
62976;BME280;49071;0.000;0.000;2022-08-05T20:09:25;101121.25;;;25.15;48.30
62976;BME280;49071;0.000;0.000;2022-08-05T20:12:25;101123.41;;;24.94;48.52
62976;BME280;49071;0.000;0.000;2022-08-05T20:15:25;101124.03;;;25.41;48.28
62976;BME280;49071;0.000;0.000;2022-08-05T20:18:28;101117.75;;;25.69;47.75
62976;BME280;49071;0.000;0.000;2022-08-05T20:21:28;101122.47;;;25.40;47.83
62976;BME280;49071;0.000;0.000;2022-08-05T20:24:28;101114.19;;;25.31;47.45
62976;BME280;49071;0.000;0.000;2022-08-05T20:27:31;101103.38;;;25.29;47.03
62976;BME280;49071;0.000;0.000;2022-08-05T20:30:31;101115.31;;;25.45;47.21
62976;BME280;49071;0.000;0.000;2022-08-05T20:33:32;101125.25;;;25.34;47.07
62976;BME280;49071;0.000;0.000;2022-08-05T20:36:32;101136.53;;;24.97;47.31
62976;BME280;49071;0.000;0.000;2022-08-05T20:39:32;101121.09;;;25.24;47.16
62976;BME280;49071;0.000;0.000;2022-08-05T20:42:33;101126.00;;;25.29;46.42
62976;BME280;49071;0.000;0.000;2022-08-05T20:45:33;101136.91;;;25.42;46.38
62976;BME280;49071;0.000;0.000;2022-08-05T20:48:36;101149.56;;;25.52;46.04
